Time;durP1;ratioP1;P1;durP2;ratioP2;P2;SDS_P1;SDS_P2;PMS_P1;PMS_P2;Temp;Humidity;BMP_temperature;BMP_pressure;BME280_temperature;BME280_humidity;BME280_pressure;Samples;Min_cycle;Max_cycle;Signal;HPM_P1;HPM_P2
2023/04/20 00:03:11;;;;;;;1.38;1.27;;;;;;;19.77;51.29;96949.72;10358095;28;20491;-73
2023/04/20 00:08:31;;;;;;;1.60;1.50;;;;;;;19.76;51.33;96929.22;10357934;28;20042;-73
2023/04/20 00:13:51;;;;;;;1.42;1.33;;;;;;;19.74;51.31;96926.84;10375494;28;20050;-73
2023/04/20 00:19:10;;;;;;;1.50;1.20;;;;;;;19.73;51.36;96919.84;10379456;28;20053;-73
2023/04/20 00:24:30;;;;;;;1.45;1.30;;;;;;;19.72;51.12;96909.38;10365569;28;20046;-73
2023/04/20 00:29:49;;;;;;;2.10;1.23;;;;;;;19.70;50.91;96904.25;10365235;28;20042;-73
2023/04/20 00:35:09;;;;;;;1.33;1.20;;;;;;;19.69;50.88;96905.34;10378818;28;20509;-73
2023/04/20 00:40:28;;;;;;;1.30;1.20;;;;;;;19.69;50.84;96909.97;10378650;28;20053;-73
2023/04/20 00:45:50;;;;;;;1.83;1.20;;;;;;;19.67;50.83;96907.59;10364791;28;20053;-73
2023/04/20 00:51:10;;;;;;;2.10;1.20;;;;;;;19.67;50.69;96901.38;10364690;28;20071;-73
2023/04/20 00:56:30;;;;;;;1.20;1.10;;;;;;;19.65;50.75;96899.00;10357492;28;20049;-73
2023/04/20 01:01:50;;;;;;;1.20;1.10;;;;;;;19.64;50.79;96889.31;10364082;28;20053;-73
2023/04/20 01:07:09;;;;;;;1.10;0.98;;;;;;;19.63;50.59;96895.03;10377615;28;20478;-73
2023/04/20 01:12:29;;;;;;;1.75;1.00;;;;;;;19.62;50.52;96905.06;10377514;28;20383;-73
2023/04/20 01:17:49;;;;;;;1.38;1.10;;;;;;;19.62;50.59;96901.56;10391988;28;20046;-73
2023/04/20 01:23:08;;;;;;;1.45;1.10;;;;;;;19.61;50.71;96897.28;10362552;28;20045;-73
2023/04/20 01:28:28;;;;;;;0.93;0.93;;;;;;;19.60;50.48;96890.28;10391637;28;20065;-73
2023/04/20 01:33:48;;;;;;;1.05;1.00;;;;;;;19.58;50.45;96881.69;10362860;28;20050;-73
2023/04/20 01:39:08;;;;;;;1.08;1.00;;;;;;;19.58;50.48;96879.00;10376573;28;20054;-73
2023/04/20 01:44:28;;;;;;;1.17;1.08;;;;;;;19.56;50.47;96879.31;10376219;28;20042;-73
2023/04/20 01:49:47;;;;;;;0.93;0.90;;;;;;;19.54;50.37;96882.34;10375952;28;20050;-73
2023/04/20 01:55:07;;;;;;;0.98;0.90;;;;;;;19.54;50.37;96882.34;10372630;28;20042;-73
2023/04/20 02:00:27;;;;;;;1.20;1.10;;;;;;;19.53;50.40;96874.56;10361878;28;20045;-74
2023/04/20 02:05:46;;;;;;;1.10;1.00;;;;;;;19.52;50.10;96862.97;10375320;28;20105;-73
2023/04/20 02:11:06;;;;;;;1.17;1.08;;;;;;;19.51;50.28;96868.69;10361361;28;20068;-73
2023/04/20 02:16:29;;;;;;;1.20;1.10;;;;;;;19.50;50.11;96867.91;10348360;28;20521;-73
2023/04/20 02:21:48;;;;;;;0.95;0.95;;;;;;;19.50;50.10;96867.09;10361129;28;20057;-73
2023/04/20 02:27:08;;;;;;;1.00;1.00;;;;;;;19.48;50.21;96867.44;10374456;28;20053;-73
2023/04/20 02:32:28;;;;;;;1.17;1.08;;;;;;;19.47;50.17;96854.25;10360635;28;20430;-72
2023/04/20 02:37:48;;;;;;;1.10;1.00;;;;;;;19.46;50.00;96855.34;10372903;28;20050;-72
2023/04/20 02:43:07;;;;;;;1.02;0.93;;;;;;;19.45;49.93;96856.47;10373060;28;20056;-72
2023/04/20 02:48:27;;;;;;;1.17;1.10;;;;;;;19.44;49.95;96854.88;10372885;28;20041;-72
2023/04/20 02:53:47;;;;;;;1.02;0.93;;;;;;;19.43;49.99;96850.59;10359109;28;20076;-72
2023/04/20 02:59:14;;;;;;;0.90;0.90;;;;;;;19.42;50.03;96857.09;10346276;28;20057;-72
2023/04/20 03:04:56;;;;;;;0.80;0.80;;;;;;;19.40;49.96;96860.13;10373273;28;20057;-72
2023/04/20 03:10:17;;;;;;;1.33;1.17;;;;;;;19.40;49.97;96859.34;10345019;28;20049;-72
2023/04/20 03:15:49;;;;;;;1.30;1.00;;;;;;;19.38;50.05;96865.06;10372013;28;20045;-72
2023/04/20 03:21:30;;;;;;;1.27;1.00;;;;;;;19.37;49.85;96855.38;10371909;28;20407;-72
2023/04/20 03:26:50;;;;;;;1.10;1.00;;;;;;;19.36;49.81;96878.88;10358103;28;20045;-72
2023/04/20 03:32:13;;;;;;;1.42;1.20;;;;;;;19.35;49.76;96865.72;10371612;28;20483;-72
2023/04/20 03:37:37;;;;;;;1.33;0.98;;;;;;;19.34;49.85;96878.41;10358005;28;20449;-72
2023/04/20 03:42:58;;;;;;;1.00;0.90;;;;;;;19.33;49.74;96873.34;10357853;28;20046;-72
2023/04/20 03:48:18;;;;;;;1.05;0.90;;;;;;;19.31;49.70;96870.94;10347167;28;20052;-72
2023/04/20 03:53:37;;;;;;;0.98;0.88;;;;;;;19.32;49.76;96869.03;10379678;28;20046;-72
2023/04/20 03:58:57;;;;;;;1.10;1.00;;;;;;;19.31;49.84;96875.56;10352370;28;20058;-72
2023/04/20 04:04:18;;;;;;;1.02;1.00;;;;;;;19.29;49.74;96865.06;10365805;28;20046;-72
2023/04/20 04:09:38;;;;;;;1.27;1.08;;;;;;;19.28;49.81;96873.50;10378960;28;20038;-72
2023/04/20 04:14:59;;;;;;;1.42;0.98;;;;;;;19.28;49.78;96878.91;10365315;28;20042;-72
2023/04/20 04:20:23;;;;;;;1.10;1.00;;;;;;;19.27;49.73;96861.13;10378659;28;20050;-72
2023/04/20 04:25:43;;;;;;;1.10;1.00;;;;;;;19.27;49.68;96867.31;10364933;28;20446;-72
2023/04/20 04:31:05;;;;;;;1.30;1.20;;;;;;;19.26;49.78;96873.03;10364655;28;20037;-72
2023/04/20 04:36:26;;;;;;;1.25;1.15;;;;;;;19.26;49.72;96881.91;10378322;28;20046;-72
2023/04/20 04:41:48;;;;;;;1.38;1.27;;;;;;;19.27;49.69;96882.72;10377955;28;20050;-71
2023/04/20 04:47:16;;;;;;;1.23;1.13;;;;;;;19.28;50.12;96887.00;10377528;28;20045;-72
2023/04/20 04:52:36;;;;;;;1.58;1.10;;;;;;;19.29;50.63;96885.91;10392331;28;20045;-72
2023/04/20 04:57:56;;;;;;;1.00;1.00;;;;;;;19.31;50.68;96883.66;10352780;28;20058;-72
2023/04/20 05:03:16;;;;;;;1.25;1.15;;;;;;;19.33;50.77;96878.75;10377083;28;20053;-72
2023/04/20 05:08:35;;;;;;;1.20;1.10;;;;;;;19.34;50.90;96869.50;10363253;28;20169;-72
2023/04/20 05:13:55;;;;;;;0.88;0.88;;;;;;;19.36;50.86;96883.47;10376679;28;20041;-72
2023/04/20 05:19:14;;;;;;;3.28;1.05;;;;;;;19.39;50.52;96879.38;10391201;28;20054;-72
2023/04/20 05:24:33;;;;;;;4.28;1.10;;;;;;;19.39;50.33;96890.19;10349087;28;20052;-72
2023/04/20 05:29:53;;;;;;;2.25;1.35;;;;;;;19.41;50.33;96885.25;10362256;28;20045;-72
2023/04/20 05:35:12;;;;;;;1.25;1.00;;;;;;;19.43;50.34;96889.22;10390712;28;20038;-72
2023/04/20 05:40:33;;;;;;;1.13;0.98;;;;;;;19.45;50.22;96889.69;10375772;28;20422;-72
2023/04/20 05:45:53;;;;;;;3.60;1.40;;;;;;;19.48;50.12;96894.44;10375522;28;20045;-72
2023/04/20 05:51:12;;;;;;;0.90;0.90;;;;;;;19.51;50.02;96901.91;10361403;28;20509;-72
2023/04/20 05:56:32;;;;;;;2.35;1.10;;;;;;;19.53;50.19;96893.47;10347629;28;20057;-72
2023/04/20 06:01:52;;;;;;;1.20;1.10;;;;;;;19.56;49.89;96901.75;10374940;28;20046;-72
2023/04/20 06:07:12;;;;;;;1.30;1.20;;;;;;;19.60;50.02;96898.38;10374657;28;20079;-72
2023/04/20 06:12:31;;;;;;;1.08;0.98;;;;;;;19.62;49.88;96899.66;10373806;28;20046;-72
2023/04/20 06:17:51;;;;;;;1.20;1.00;;;;;;;19.65;49.74;96903.63;10374242;28;20042;-72
2023/04/20 06:23:11;;;;;;;1.00;1.00;;;;;;;19.68;49.75;96911.88;10346797;28;20052;-73
2023/04/20 06:28:31;;;;;;;1.48;1.10;;;;;;;19.72;49.71;96915.56;10374882;28;20042;-72
2023/04/20 06:33:50;;;;;;;1.35;1.25;;;;;;;19.76;49.67;96910.31;10359857;28;20045;-72
2023/04/20 06:39:10;;;;;;;1.45;1.20;;;;;;;19.79;49.58;96912.34;10388304;28;20053;-72
2023/04/20 06:44:30;;;;;;;1.10;1.00;;;;;;;19.84;49.54;96911.41;10359545;28;20042;-72
2023/04/20 06:49:49;;;;;;;1.10;1.00;;;;;;;19.88;49.47;96912.34;10372850;28;20104;-72
2023/04/20 06:55:09;;;;;;;1.23;1.13;;;;;;;19.90;49.23;96905.47;10373862;28;20107;-72
2023/04/20 07:00:28;;;;;;;1.20;1.00;;;;;;;19.94;49.52;96905.63;10372786;28;20041;-72
2023/04/20 07:05:48;;;;;;;1.23;1.10;;;;;;;19.96;49.33;96887.19;10358535;28;20045;-72
2023/04/20 07:11:07;;;;;;;1.20;1.08;;;;;;;20.00;49.31;96892.72;10358531;28;20042;-72
2023/04/20 07:16:27;;;;;;;1.67;1.10;;;;;;;20.02;49.21;96895.91;10372039;28;20479;-72
2023/04/20 07:21:46;;;;;;;1.20;1.10;;;;;;;20.06;49.09;96891.44;10386694;28;20053;-72
2023/04/20 07:27:07;;;;;;;1.90;0.88;;;;;;;20.09;49.18;96902.41;10371839;28;20049;-72
2023/04/20 07:32:26;;;;;;;1.98;1.10;;;;;;;20.13;49.32;96916.03;10371583;28;20041;-72
2023/04/20 07:37:46;;;;;;;1.17;1.05;;;;;;;20.17;49.38;96935.94;10371220;28;20050;-72
2023/04/20 07:43:05;;;;;;;1.67;1.13;;;;;;;20.21;49.45;96925.22;10371553;28;20100;-72
2023/04/20 07:48:25;;;;;;;1.17;1.05;;;;;;;20.23;49.39;96923.81;10371176;28;20042;-72
2023/04/20 07:53:44;;;;;;;1.00;1.00;;;;;;;20.28;49.26;96934.44;10371262;28;20046;-72
2023/04/20 07:59:03;;;;;;;1.20;0.90;;;;;;;20.31;49.37;96941.13;10371148;28;20041;-72
2023/04/20 08:04:23;;;;;;;1.23;1.00;;;;;;;20.34;48.90;96925.00;10357261;28;20413;-72
2023/04/20 08:09:42;;;;;;;0.90;0.90;;;;;;;20.37;49.15;96920.88;10370840;28;20438;-72
2023/04/20 08:15:05;;;;;;;1.05;0.95;;;;;;;20.39;48.97;96917.84;10370786;28;20046;-72
2023/04/20 08:20:24;;;;;;;1.08;1.00;;;;;;;20.41;48.86;96918.31;10385603;28;20411;-70
2023/04/20 08:25:44;;;;;;;1.52;0.93;;;;;;;20.42;48.88;96912.56;10385479;28;20046;-72
2023/04/20 08:31:03;;;;;;;0.85;0.85;;;;;;;20.42;48.88;96907.16;10385288;28;20042;-73
2023/04/20 08:36:23;;;;;;;1.15;1.10;;;;;;;20.42;49.03;96903.66;10391228;28;20050;-73
2023/04/20 08:41:42;;;;;;;1.15;1.00;;;;;;;20.43;48.99;96900.63;10364186;28;20061;-73
2023/04/20 08:47:02;;;;;;;2.35;0.88;;;;;;;20.42;49.14;96893.63;10377648;28;20508;-73
2023/04/20 08:52:22;;;;;;;0.85;0.85;;;;;;;20.45;49.07;96897.59;10364262;28;20042;-73
2023/04/20 08:57:41;;;;;;;1.50;0.90;;;;;;;20.47;49.17;96898.84;10380363;28;20514;-73
2023/04/20 09:03:02;;;;;;;0.90;0.90;;;;;;;20.47;49.07;96888.03;10363729;28;20046;-73
2023/04/20 09:08:33;;;;;;;1.05;0.90;;;;;;;20.48;49.22;96896.94;10363070;28;20060;-73
2023/04/20 09:14:12;;;;;;;0.80;0.80;;;;;;;20.50;49.16;96889.28;10376420;28;20069;-72
2023/04/20 09:19:32;;;;;;;0.90;0.90;;;;;;;20.50;49.18;96894.69;10362828;28;20061;-73
2023/04/20 09:24:51;;;;;;;1.17;1.08;;;;;;;20.51;49.22;96902.47;10362523;28;20049;-72
2023/04/20 09:30:11;;;;;;;1.92;1.10;;;;;;;20.54;49.00;96892.91;10376163;28;20042;-72
2023/04/20 09:35:30;;;;;;;1.00;0.90;;;;;;;20.57;49.44;96896.88;10390894;28;20049;-72
2023/04/20 09:40:50;;;;;;;1.83;1.10;;;;;;;20.57;48.92;96891.47;10375874;28;20057;-73
2023/04/20 09:46:09;;;;;;;2.10;1.50;;;;;;;20.58;48.08;96895.75;10374555;28;20071;-73
2023/04/20 09:51:31;;;;;;;2.05;1.85;;;;;;;20.58;47.72;96887.63;10361779;28;20044;-72
2023/04/20 09:56:52;;;;;;;3.30;2.10;;;;;;;20.58;47.41;96896.56;10367304;28;20054;-72
2023/04/20 10:02:12;;;;;;;2.72;2.00;;;;;;;20.56;47.17;96882.53;10374452;28;20053;-73
2023/04/20 10:07:33;;;;;;;2.33;2.13;;;;;;;20.58;46.79;96885.75;10374659;28;20076;-72
2023/04/20 10:13:00;;;;;;;2.63;2.33;;;;;;;20.56;46.56;96874.44;10389111;28;20053;-72
2023/04/20 10:18:22;;;;;;;2.30;2.10;;;;;;;20.57;46.79;96873.31;10373784;28;20050;-72
2023/04/20 10:23:49;;;;;;;3.17;2.53;;;;;;;20.56;47.37;96871.72;10375048;28;20089;-72
2023/04/20 10:29:11;;;;;;;2.55;2.30;;;;;;;20.55;47.49;96865.53;10373934;28;20406;-72
2023/04/20 10:34:35;;;;;;;2.83;2.20;;;;;;;20.55;47.71;96870.16;10374077;28;20064;-72
2023/04/20 10:39:55;;;;;;;2.40;2.20;;;;;;;20.56;47.93;96866.31;10373679;28;20046;-72
2023/04/20 10:45:14;;;;;;;4.60;2.15;;;;;;;20.56;47.89;96863.59;10373108;28;20042;-72
2023/04/20 10:50:34;;;;;;;2.75;1.90;;;;;;;20.55;47.97;96868.22;10387841;28;20419;-72
2023/04/20 10:55:58;;;;;;;4.20;2.15;;;;;;;20.56;48.07;96855.47;10353647;28;20050;-72
2023/04/20 11:01:17;;;;;;;2.30;2.10;;;;;;;20.58;48.20;96849.75;10372763;28;20057;-72
2023/04/20 11:06:40;;;;;;;2.65;1.98;;;;;;;20.56;48.29;96839.25;10372615;28;20046;-73
2023/04/20 11:12:08;;;;;;;4.35;2.22;;;;;;;20.56;48.42;96831.13;10371851;28;20038;-73
2023/04/20 11:17:34;;;;;;;3.63;2.10;;;;;;;20.55;48.50;96829.56;10386878;28;20483;-73
2023/04/20 11:23:00;;;;;;;2.05;1.85;;;;;;;20.55;48.66;96829.56;10358246;28;20045;-73
2023/04/20 11:28:19;;;;;;;2.63;2.25;;;;;;;20.54;48.70;96825.25;10371981;28;20034;-73
2023/04/20 11:33:39;;;;;;;2.22;2.03;;;;;;;20.52;48.40;96822.06;10386471;28;20041;-73
2023/04/20 11:39:08;;;;;;;2.70;2.50;;;;;;;20.52;48.43;96827.50;10386304;28;20053;-72
2023/04/20 11:44:28;;;;;;;4.75;2.50;;;;;;;20.51;48.55;96825.91;10371593;28;20403;-73
2023/04/20 11:49:48;;;;;;;3.35;2.40;;;;;;;20.52;49.00;96830.19;10358097;28;20494;-72
2023/04/20 11:55:07;;;;;;;3.08;2.47;;;;;;;20.51;49.00;96817.81;10368113;28;20046;-72
2023/04/20 12:00:27;;;;;;;3.28;2.55;;;;;;;20.50;49.29;96814.31;10357234;28;20049;-72
2023/04/20 12:05:47;;;;;;;2.50;2.30;;;;;;;20.50;49.28;96813.50;10370567;28;20053;-72
2023/04/20 12:11:06;;;;;;;2.67;2.10;;;;;;;20.50;49.51;96810.78;10378116;28;20042;-72
2023/04/20 12:16:26;;;;;;;2.75;2.50;;;;;;;20.50;49.75;96810.78;10365160;28;20064;-72
2023/04/20 12:21:46;;;;;;;2.58;2.38;;;;;;;20.48;49.66;96803.03;10365206;28;20052;-71
2023/04/20 12:27:06;;;;;;;6.05;3.00;;;;;;;20.50;50.05;96808.09;10364708;28;20502;-71
2023/04/20 12:32:25;;;;;;;5.57;3.63;;;;;;;20.50;50.38;96802.69;10392859;28;20106;-71
2023/04/20 12:37:45;;;;;;;18.33;12.40;;;;;;;20.46;46.93;96801.75;10392983;28;20081;-71
2023/04/20 12:43:04;;;;;;;14.55;11.93;;;;;;;20.20;42.49;96797.31;10377524;28;20042;-71
2023/04/20 12:48:24;;;;;;;38.53;24.83;;;;;;;20.24;45.68;96795.53;10364027;28;20065;-72
2023/04/20 12:53:44;;;;;;;19.80;14.52;;;;;;;20.29;46.05;96786.47;10377595;28;20059;-72
2023/04/20 12:59:04;;;;;;;22.00;15.80;;;;;;;20.35;46.09;96775.09;10377236;28;20057;-71
2023/04/20 13:04:23;;;;;;;24.48;17.02;;;;;;;20.37;46.43;96768.56;10376875;28;20050;-72
2023/04/20 13:09:43;;;;;;;22.27;15.32;;;;;;;20.39;46.55;96763.63;10363105;28;20045;-71
2023/04/20 13:15:03;;;;;;;18.23;14.63;;;;;;;20.35;46.39;96760.78;10376713;28;20042;-71
2023/04/20 13:20:28;;;;;;;17.90;12.95;;;;;;;20.35;46.75;96748.03;10362788;28;20050;-71
2023/04/20 13:25:47;;;;;;;12.57;10.82;;;;;;;20.38;44.98;96748.50;10376837;28;20100;-71
2023/04/20 13:31:07;;;;;;;11.50;10.25;;;;;;;20.29;43.20;96760.19;10375885;28;20077;-70
2023/04/20 13:36:27;;;;;;;10.93;9.77;;;;;;;20.20;42.17;96751.34;10390564;28;20071;-70
2023/04/20 13:41:48;;;;;;;11.48;9.07;;;;;;;20.17;42.20;96746.59;10375608;28;20061;-71
2023/04/20 13:47:07;;;;;;;10.70;7.28;;;;;;;20.17;44.11;96743.91;10375477;28;20042;-70
2023/04/20 13:52:26;;;;;;;8.02;6.60;;;;;;;20.19;44.67;96738.13;10375215;28;20034;-71
2023/04/20 13:57:46;;;;;;;8.15;7.35;;;;;;;20.20;45.35;96735.09;10364846;28;20050;-71
2023/04/20 14:03:08;;;;;;;8.35;6.95;;;;;;;20.21;45.85;96730.47;10374788;28;20045;-70
2023/04/20 14:08:27;;;;;;;9.43;8.07;;;;;;;20.22;44.44;96735.56;10374505;28;20042;-71
2023/04/20 14:13:48;;;;;;;11.38;8.32;;;;;;;20.20;43.31;96732.41;10389240;28;20044;-70
2023/04/20 14:19:07;;;;;;;8.15;7.35;;;;;;;20.19;43.76;96730.00;10374099;28;20046;-71
2023/04/20 14:24:26;;;;;;;939.03;477.98;;;;;;;20.17;45.92;96724.16;10373975;28;20064;-71
2023/04/20 14:29:46;;;;;;;65.63;32.17;;;;;;;20.15;48.70;96722.56;10359772;28;20038;-71
2023/04/20 14:35:05;;;;;;;162.65;81.55;;;;;;;20.18;48.80;96720.34;10372629;28;20041;-71
2023/04/20 14:40:25;;;;;;;142.10;64.35;;;;;;;20.18;49.63;96710.31;10373191;28;20049;-71
2023/04/20 14:45:45;;;;;;;62.45;30.52;;;;;;;20.16;46.39;96712.53;10373536;28;20049;-71
2023/04/20 14:51:05;;;;;;;119.32;52.38;;;;;;;20.14;48.31;96706.69;10387742;28;20038;-71
2023/04/20 14:56:24;;;;;;;92.85;43.67;;;;;;;20.15;49.31;96705.56;10381107;28;20057;-70
2023/04/20 15:01:44;;;;;;;81.45;39.00;;;;;;;20.18;50.25;96704.88;10372625;28;20057;-70
2023/04/20 15:07:04;;;;;;;83.45;38.85;;;;;;;20.20;51.03;96701.88;10345207;28;20088;-70
2023/04/20 15:12:23;;;;;;;74.93;33.92;;;;;;;20.20;50.77;96696.44;10372328;28;20556;-70
2023/04/20 15:17:45;;;;;;;63.22;30.77;;;;;;;20.21;50.54;96692.59;10358201;28;20050;-70
2023/04/20 15:23:05;;;;;;;74.63;32.45;;;;;;;20.22;50.95;96689.56;10371921;28;20042;-70
2023/04/20 15:28:24;;;;;;;63.42;30.17;;;;;;;20.22;51.21;96689.56;10371882;28;20143;-71
2023/04/20 15:33:46;;;;;;;67.70;29.92;;;;;;;20.25;51.32;96680.81;10371585;28;20455;-70
2023/04/20 15:39:06;;;;;;;64.57;30.67;;;;;;;20.26;51.47;96678.91;10371371;28;20486;-70
2023/04/20 15:44:25;;;;;;;63.40;30.10;;;;;;;20.26;51.80;96676.97;10370170;28;20046;-70
2023/04/20 15:49:45;;;;;;;65.35;29.45;;;;;;;20.24;51.93;96681.13;10371143;28;20046;-71
2023/04/20 15:55:05;;;;;;;62.97;29.63;;;;;;;20.25;52.27;96691.63;10368253;28;20049;-70
2023/04/20 16:00:25;;;;;;;61.17;29.00;;;;;;;20.26;52.25;96690.50;10371164;28;20049;-70
2023/04/20 16:05:45;;;;;;;59.97;27.63;;;;;;;20.23;52.55;96693.06;10343915;28;20065;-70
2023/04/20 16:11:05;;;;;;;56.20;27.90;;;;;;;20.25;52.52;96697.03;10385660;28;20045;-70
2023/04/20 16:16:25;;;;;;;56.78;27.42;;;;;;;20.26;52.72;96689.72;10357230;28;20045;-70
2023/04/20 16:21:45;;;;;;;56.33;27.48;;;;;;;20.24;52.85;96687.34;10370800;28;20115;-70
2023/04/20 16:27:04;;;;;;;38.60;18.52;;;;;;;20.25;53.01;96693.56;10370697;28;20057;-71
2023/04/20 16:32:24;;;;;;;35.67;17.05;;;;;;;20.22;53.33;96696.91;10385232;28;20038;-72
2023/04/20 16:37:44;;;;;;;45.17;21.48;;;;;;;20.21;53.30;96696.13;10356742;28;20038;-72
2023/04/20 16:43:03;;;;;;;41.85;20.05;;;;;;;20.22;53.50;96700.41;10356607;28;20533;-72
2023/04/20 16:48:23;;;;;;;41.20;19.70;;;;;;;20.22;53.31;96699.63;10384916;28;20045;-71
2023/04/20 16:53:44;;;;;;;18.35;10.40;;;;;;;20.13;47.58;96702.38;10385319;28;20045;-71
2023/04/20 16:59:03;;;;;;;25.77;13.32;;;;;;;20.07;47.58;96701.00;10377221;28;20084;-76
2023/04/20 17:04:23;;;;;;;24.40;13.88;;;;;;;20.07;50.23;96709.09;10363494;28;20080;-71
2023/04/20 17:09:43;;;;;;;244.18;90.10;;;;;;;20.08;51.89;96702.59;10391681;28;20041;-71
2023/04/20 17:15:03;;;;;;;102.72;38.42;;;;;;;20.09;53.92;96713.09;10376739;28;20049;-72
2023/04/20 17:20:23;;;;;;;70.20;25.08;;;;;;;20.11;54.74;96712.72;10362633;28;20053;-72
2023/04/20 17:25:44;;;;;;;52.15;16.95;;;;;;;20.11;56.25;96720.84;10376339;28;20050;-71
2023/04/20 17:31:04;;;;;;;79.22;29.63;;;;;;;20.11;55.97;96715.44;10362628;28;20038;-71
2023/04/20 17:36:24;;;;;;;58.97;22.35;;;;;;;20.13;55.86;96724.00;10348322;28;20066;-71
2023/04/20 17:41:43;;;;;;;62.80;23.67;;;;;;;20.12;55.36;96723.22;10375801;28;20502;-72
2023/04/20 17:47:08;;;;;;;57.63;23.55;;;;;;;20.12;55.41;96722.44;10362341;28;20045;-72
2023/04/20 17:52:27;;;;;;;60.78;22.42;;;;;;;20.10;55.46;96728.19;10362361;28;20080;-73
2023/04/20 17:57:47;;;;;;;49.72;20.05;;;;;;;20.11;55.33;96731.66;10348347;28;20060;-72
2023/04/20 18:03:06;;;;;;;45.60;20.50;;;;;;;20.09;55.02;96728.50;10361755;28;20041;-72
2023/04/20 18:08:25;;;;;;;26.05;10.50;;;;;;;20.07;54.07;96741.56;10388364;28;20529;-72
2023/04/20 18:13:45;;;;;;;27.80;9.95;;;;;;;20.05;54.47;96744.63;10389296;28;20046;-72
2023/04/20 18:19:04;;;;;;;38.13;12.75;;;;;;;20.06;54.12;96754.28;10374273;28;20042;-73
2023/04/20 18:24:24;;;;;;;25.60;11.05;;;;;;;20.06;54.05;96758.91;10346694;28;20042;-72
2023/04/20 18:29:43;;;;;;;28.95;11.68;;;;;;;20.05;54.08;96766.25;10373546;28;20121;-72
2023/04/20 18:35:04;;;;;;;42.80;16.00;;;;;;;20.05;53.76;96770.84;10373686;28;20042;-72
2023/04/20 18:40:23;;;;;;;25.33;11.40;;;;;;;20.01;51.52;96767.22;10359742;28;20117;-72
2023/04/20 18:45:42;;;;;;;31.38;14.68;;;;;;;20.00;53.26;96779.16;10373272;28;20045;-72
2023/04/20 18:51:02;;;;;;;34.00;15.05;;;;;;;20.01;53.10;96783.44;10372940;28;20402;-72
2023/04/20 18:56:22;;;;;;;37.45;15.38;;;;;;;20.01;53.70;96786.13;10353550;28;20137;-72
2023/04/20 19:01:42;;;;;;;33.25;14.05;;;;;;;20.00;53.98;96787.28;10359066;28;20045;-72
2023/04/20 19:07:01;;;;;;;22.92;11.93;;;;;;;20.00;54.14;96787.28;10372506;28;20504;-72
2023/04/20 19:12:21;;;;;;;31.23;13.77;;;;;;;20.00;54.23;96784.56;10345325;28;20103;-73
2023/04/20 19:17:41;;;;;;;28.85;13.38;;;;;;;20.00;54.33;96781.88;10358526;28;20042;-73
2023/04/20 19:23:01;;;;;;;28.50;13.30;;;;;;;19.98;54.43;96792.22;10358598;28;20056;-72
2023/04/20 19:28:20;;;;;;;30.08;13.60;;;;;;;19.97;54.50;96794.09;10358088;28;20049;-72
2023/04/20 19:33:39;;;;;;;32.55;13.80;;;;;;;19.97;54.54;96796.81;10371775;28;20049;-72
2023/04/20 19:38:59;;;;;;;22.95;10.88;;;;;;;19.97;54.71;96802.22;10386434;28;20046;-72
2023/04/20 19:44:18;;;;;;;29.50;12.95;;;;;;;19.97;54.68;96801.44;10371371;28;20046;-72
2023/04/20 19:49:38;;;;;;;33.60;13.95;;;;;;;19.96;54.85;96806.06;10371032;28;20042;-71
2023/04/20 19:54:58;;;;;;;26.25;11.98;;;;;;;19.94;54.69;96809.09;10369287;28;20060;-72
2023/04/20 20:00:17;;;;;;;30.83;13.23;;;;;;;19.94;54.80;96809.09;10371318;28;20077;-71
2023/04/20 20:05:37;;;;;;;35.00;13.60;;;;;;;19.94;54.76;96819.91;10344364;28;20062;-72
2023/04/20 20:10:56;;;;;;;29.10;12.20;;;;;;;19.94;55.05;96816.41;10372225;28;20524;-71
2023/04/20 20:16:17;;;;;;;31.02;12.45;;;;;;;19.93;55.05;96821.03;10385525;28;20057;-71
2023/04/20 20:21:37;;;;;;;31.88;13.05;;;;;;;19.93;55.16;96817.50;10385781;28;20041;-71
2023/04/20 20:26:56;;;;;;;28.65;12.32;;;;;;;19.91;55.21;96819.75;10370835;28;20038;-71
2023/04/20 20:32:15;;;;;;;28.98;12.23;;;;;;;19.92;55.54;96824.06;10362370;28;20041;-72
2023/04/20 20:37:35;;;;;;;24.60;10.35;;;;;;;19.92;55.81;96822.13;10351856;28;20053;-72
2023/04/20 20:42:55;;;;;;;22.92;9.52;;;;;;;19.92;56.25;96815.94;10351014;28;20380;-72
2023/04/20 20:48:15;;;;;;;26.95;11.30;;;;;;;19.90;56.33;96818.97;10377878;28;20038;-72
2023/04/20 20:53:34;;;;;;;22.00;11.07;;;;;;;19.90;56.52;96821.66;10366559;28;20041;-72
2023/04/20 20:58:54;;;;;;;20.90;10.40;;;;;;;19.90;56.68;96829.00;10311086;28;20054;-72
2023/04/20 21:04:13;;;;;;;28.85;11.38;;;;;;;19.88;56.71;96826.59;10351381;28;20054;-72
2023/04/20 21:09:32;;;;;;;24.08;10.65;;;;;;;19.88;56.65;96828.53;10336484;28;20045;-70
2023/04/20 21:14:52;;;;;;;26.30;10.68;;;;;;;19.87;56.42;96822.31;10336676;28;20050;-72
2023/04/20 21:20:12;;;;;;;19.38;9.98;;;;;;;19.85;56.46;96821.84;10337773;28;20450;-72
2023/04/20 21:25:31;;;;;;;21.50;10.45;;;;;;;19.84;56.12;96817.56;10336182;28;20042;-72
2023/04/20 21:30:51;;;;;;;20.95;9.57;;;;;;;19.85;56.11;96815.66;10335854;28;20042;-72
2023/04/20 21:36:10;;;;;;;15.85;8.52;;;;;;;19.83;56.08;96817.88;10335657;28;20038;-72
2023/04/20 21:41:31;;;;;;;18.20;8.95;;;;;;;19.83;56.09;96824.06;10335542;28;20042;-72
2023/04/20 21:46:50;;;;;;;18.85;9.45;;;;;;;19.81;55.76;96823.59;10335502;28;20049;-72
2023/04/20 21:52:10;;;;;;;20.63;9.63;;;;;;;19.82;55.74;96824.44;10350006;28;20509;-72
2023/04/20 21:57:29;;;;;;;17.70;9.23;;;;;;;19.79;55.95;96825.84;10326361;28;20447;-72
2023/04/20 22:02:48;;;;;;;18.23;9.20;;;;;;;19.79;55.76;96833.97;10348297;28;20392;-72
2023/04/20 22:08:08;;;;;;;17.67;8.73;;;;;;;19.78;55.80;96820.75;10334692;28;20097;-72
2023/04/20 22:13:27;;;;;;;17.02;8.70;;;;;;;19.77;55.64;96824.59;10334266;28;20487;-72
2023/04/20 22:18:47;;;;;;;17.92;9.73;;;;;;;19.75;55.58;96825.69;10333989;28;20050;-72
2023/04/20 22:24:07;;;;;;;15.68;8.63;;;;;;;19.75;55.66;96828.41;10348475;28;20042;-72
2023/04/20 22:29:26;;;;;;;15.88;9.25;;;;;;;19.75;55.58;96824.91;10333442;28;20043;-72
2023/04/20 22:34:46;;;;;;;15.70;8.50;;;;;;;19.73;55.44;96824.44;10347208;28;20042;-72
2023/04/20 22:40:06;;;;;;;14.65;8.05;;;;;;;19.73;55.48;96827.94;10346830;28;20053;-72
2023/04/20 22:45:26;;;;;;;14.80;8.07;;;;;;;19.72;55.33;96820.97;10347596;28;20042;-72
2023/04/20 22:50:46;;;;;;;17.08;8.40;;;;;;;19.70;55.29;96815.06;10332719;28;20046;-72
2023/04/20 22:56:06;;;;;;;18.45;8.48;;;;;;;19.71;55.29;96821.25;10342088;28;20055;-72
2023/04/20 23:01:26;;;;;;;14.88;8.27;;;;;;;19.70;55.38;96822.38;10332523;28;20406;-72
2023/04/20 23:06:46;;;;;;;15.45;8.55;;;;;;;19.68;55.09;96822.69;10332248;28;20038;-72
2023/04/20 23:12:10;;;;;;;16.20;8.35;;;;;;;19.69;55.30;96818.06;10331912;28;20490;-72
2023/04/20 23:17:31;;;;;;;13.82;7.72;;;;;;;19.67;55.03;96817.59;10319012;28;20054;-72
2023/04/20 23:22:50;;;;;;;13.90;8.63;;;;;;;19.66;55.06;96821.41;10331791;28;20046;-72
2023/04/20 23:28:10;;;;;;;11.48;7.45;;;;;;;19.65;55.16;96809.03;10331511;28;20051;-72
2023/04/20 23:33:29;;;;;;;14.73;7.65;;;;;;;19.65;55.08;96817.13;10345098;28;20522;-72
2023/04/20 23:38:49;;;;;;;13.35;7.43;;;;;;;19.64;55.18;96820.94;10331215;28;20042;-72
2023/04/20 23:44:08;;;;;;;11.85;7.60;;;;;;;19.62;54.94;96813.19;10331244;28;20050;-72
2023/04/20 23:49:28;;;;;;;15.07;7.40;;;;;;;19.61;55.31;96811.59;10345678;28;20446;-71
2023/04/20 23:54:47;;;;;;;14.40;7.32;;;;;;;19.61;55.03;96800.78;10329347;28;20073;-72
